createdAt,value
2022-10-19T00:02:21.958Z,10.48
2022-10-19T00:04:48.733Z,10.46
2022-10-19T00:07:15.303Z,10.36
2022-10-19T00:09:44.504Z,10.36
2022-10-19T00:12:12.538Z,10.43
2022-10-19T00:14:39.118Z,10.50
2022-10-19T00:17:05.866Z,10.48
2022-10-19T00:19:32.557Z,10.44
2022-10-19T00:21:59.241Z,10.43
2022-10-19T00:24:25.782Z,10.40
2022-10-19T00:26:52.306Z,10.43
2022-10-19T00:29:19.149Z,10.39
2022-10-19T00:31:46.034Z,10.34
2022-10-19T00:34:12.638Z,10.26
2022-10-19T00:36:40.902Z,10.17
2022-10-19T00:39:11.607Z,10.11
2022-10-19T00:41:39.530Z,10.15
2022-10-19T00:44:06.189Z,10.12
2022-10-19T00:46:35.771Z,10.26
2022-10-19T00:49:11.208Z,10.14
2022-10-19T00:51:41.141Z,10.10
2022-10-19T00:54:09.377Z,10.05
2022-10-19T00:56:39.720Z,10.02
2022-10-19T00:59:08.012Z,10.01
2022-10-19T01:01:35.544Z,9.96
2022-10-19T01:04:03.762Z,9.97
2022-10-19T01:06:31.144Z,9.93
2022-10-19T01:08:57.676Z,10.01
2022-10-19T01:11:44.973Z,9.97
2022-10-19T01:15:05.993Z,9.95
2022-10-19T01:17:54.096Z,9.95
2022-10-19T01:20:26.827Z,9.88
2022-10-19T01:23:11.783Z,9.79
2022-10-19T01:26:15.903Z,9.79
2022-10-19T01:29:00.975Z,9.73
2022-10-19T01:31:42.960Z,9.71
2022-10-19T01:34:27.101Z,9.72
2022-10-19T01:36:53.573Z,9.67
2022-10-19T01:39:38.505Z,9.67
2022-10-19T01:42:16.822Z,9.67
2022-10-19T01:45:06.439Z,9.60
2022-10-19T01:47:40.028Z,9.63
2022-10-19T01:50:13.434Z,9.65
2022-10-19T01:52:42.055Z,9.54
2022-10-19T01:55:11.632Z,9.48
2022-10-19T01:57:43.798Z,9.49
2022-10-19T02:00:12.978Z,9.41
2022-10-19T02:02:43.929Z,9.46
2022-10-19T02:05:12.224Z,9.46
2022-10-19T02:07:42.187Z,9.41
2022-10-19T02:10:09.095Z,9.35
2022-10-19T02:12:37.458Z,9.35
2022-10-19T02:15:10.871Z,9.34
2022-10-19T02:17:42.481Z,9.39
2022-10-19T02:20:09.599Z,9.47
2022-10-19T02:22:36.618Z,9.40
2022-10-19T02:25:03.824Z,9.38
2022-10-19T02:27:30.540Z,9.44
2022-10-19T02:29:57.132Z,9.49
2022-10-19T02:32:23.699Z,9.41
2022-10-19T02:34:50.306Z,9.39
2022-10-19T02:37:18.885Z,9.43
2022-10-19T02:39:46.630Z,9.38
2022-10-19T02:42:18.204Z,9.38
2022-10-19T02:44:53.482Z,9.38
2022-10-19T02:47:25.897Z,9.32
2022-10-19T02:49:53.249Z,9.33
2022-10-19T02:52:19.870Z,9.34
2022-10-19T02:54:46.699Z,9.37
2022-10-19T02:57:17.617Z,9.37
2022-10-19T02:59:44.349Z,9.35
2022-10-19T03:02:10.983Z,9.40
2022-10-19T03:04:37.704Z,9.21
2022-10-19T03:07:04.585Z,9.17
2022-10-19T03:09:31.117Z,9.15
2022-10-19T03:11:57.633Z,9.05
2022-10-19T03:14:24.480Z,9.02
2022-10-19T03:16:50.974Z,9.03
2022-10-19T03:19:17.585Z,8.96
2022-10-19T03:21:44.385Z,8.99
2022-10-19T03:24:12.477Z,8.94
2022-10-19T03:26:39.201Z,8.91
2022-10-19T03:29:05.893Z,8.94
2022-10-19T03:31:32.487Z,8.88
2022-10-19T03:33:59.047Z,8.93
2022-10-19T03:36:29.752Z,8.83
2022-10-19T03:38:59.695Z,8.86
2022-10-19T03:41:29.759Z,8.88
2022-10-19T03:43:57.068Z,8.93
2022-10-19T03:46:24.210Z,8.88
2022-10-19T03:48:51.049Z,8.84
2022-10-19T03:51:26.314Z,8.97
2022-10-19T03:54:01.508Z,9.00
2022-10-19T03:56:29.642Z,8.95
2022-10-19T03:58:58.799Z,8.99
2022-10-19T04:01:37.810Z,9.09
2022-10-19T04:04:07.198Z,9.06
2022-10-19T04:06:36.224Z,9.08
2022-10-19T04:09:03.856Z,9.13
2022-10-19T04:11:31.647Z,9.08
2022-10-19T04:13:59.441Z,9.12
2022-10-19T04:16:28.598Z,9.12
2022-10-19T04:18:55.658Z,9.15
2022-10-19T04:21:31.696Z,9.19
2022-10-19T04:24:02.115Z,9.24
2022-10-19T04:26:28.700Z,9.29
2022-10-19T04:28:58.597Z,9.34
2022-10-19T04:31:26.197Z,9.33
2022-10-19T04:33:52.764Z,9.34
2022-10-19T04:36:19.903Z,9.34
2022-10-19T04:38:46.465Z,9.42
2022-10-19T04:41:15.876Z,9.54
2022-10-19T04:43:45.230Z,9.38
2022-10-19T04:46:18.088Z,9.37
2022-10-19T04:48:46.694Z,9.26
2022-10-19T04:51:14.302Z,9.30
2022-10-19T04:53:42.610Z,9.21
2022-10-19T04:56:13.517Z,9.29
2022-10-19T04:58:40.129Z,9.30
2022-10-19T05:01:11.793Z,9.13
2022-10-19T05:03:38.803Z,9.01
2022-10-19T05:06:06.397Z,9.09
2022-10-19T05:08:33.242Z,8.94
2022-10-19T05:11:06.452Z,9.03
2022-10-19T05:13:33.497Z,9.09
2022-10-19T05:16:01.724Z,9.03
2022-10-19T05:18:29.123Z,9.02
2022-10-19T05:21:07.140Z,9.22
2022-10-19T05:23:34.523Z,9.24
2022-10-19T05:26:09.361Z,9.20
2022-10-19T05:28:36.879Z,9.23
2022-10-19T05:31:14.891Z,9.31
2022-10-19T05:33:42.409Z,9.48
2022-10-19T05:36:20.987Z,9.44
2022-10-19T05:38:50.087Z,9.46
2022-10-19T05:41:17.268Z,9.67
2022-10-19T05:43:44.591Z,9.64
2022-10-19T05:46:14.114Z,9.78
2022-10-19T05:48:41.610Z,9.71
2022-10-19T05:51:11.759Z,9.83
2022-10-19T05:56:20.729Z,9.96
2022-10-19T05:58:48.371Z,10.01
2022-10-19T06:01:16.327Z,10.15
2022-10-19T06:03:43.092Z,10.13
2022-10-19T06:06:10.352Z,10.20
2022-10-19T06:08:37.799Z,10.31
2022-10-19T06:11:15.614Z,10.34
2022-10-19T06:13:44.049Z,10.23
2022-10-19T06:16:13.058Z,10.24
2022-10-19T06:18:40.239Z,10.24
2022-10-19T06:21:08.912Z,10.14
2022-10-19T06:23:35.963Z,10.10
2022-10-19T06:26:08.389Z,10.00
2022-10-19T06:28:36.868Z,9.97
2022-10-19T06:31:06.049Z,9.91
2022-10-19T06:33:35.191Z,9.88
2022-10-19T06:36:37.149Z,9.90
2022-10-19T06:39:03.946Z,9.88
2022-10-19T06:41:31.577Z,9.88
2022-10-19T06:43:58.259Z,9.96
2022-10-19T06:46:26.904Z,9.76
2022-10-19T06:49:02.560Z,9.69
2022-10-19T06:51:30.484Z,9.74
2022-10-19T06:53:57.622Z,9.73
2022-10-19T06:56:25.879Z,9.62
2022-10-19T06:58:53.231Z,9.63
2022-10-19T07:01:20.096Z,9.65
2022-10-19T07:03:47.037Z,9.68
2022-10-19T07:06:14.142Z,9.71
2022-10-19T07:08:42.650Z,9.68
2022-10-19T07:11:12.238Z,9.59
2022-10-19T07:13:39.671Z,9.59
2022-10-19T07:16:16.024Z,9.66
2022-10-19T07:18:47.023Z,9.67
2022-10-19T07:21:15.655Z,9.76
2022-10-19T07:23:43.817Z,9.70
2022-10-19T07:26:16.193Z,9.75
2022-10-19T07:28:45.310Z,9.70
2022-10-19T07:31:14.951Z,9.72
2022-10-19T07:33:41.545Z,9.77
2022-10-19T07:36:10.106Z,9.82
2022-10-19T07:38:37.564Z,9.83
2022-10-19T07:41:06.010Z,10.03
2022-10-19T07:43:33.231Z,9.94
2022-10-19T07:46:04.757Z,9.99
2022-10-19T07:48:31.599Z,10.18
2022-10-19T07:51:02.823Z,10.13
2022-10-19T07:53:29.415Z,10.03
2022-10-19T07:55:56.483Z,10.09
2022-10-19T07:58:23.014Z,10.00
2022-10-19T08:00:49.670Z,10.12
2022-10-19T08:03:57.573Z,10.10
2022-10-19T08:06:06.177Z,9.97
2022-10-19T08:08:33.522Z,9.95
2022-10-19T08:11:11.105Z,10.06
2022-10-19T08:13:38.521Z,10.10
2022-10-19T08:16:06.301Z,10.01
2022-10-19T08:21:04.430Z,9.90
2022-10-19T08:23:30.959Z,10.09
2022-10-19T08:25:59.465Z,9.92
2022-10-19T08:28:26.020Z,9.96
2022-10-19T08:30:57.935Z,10.09
2022-10-19T08:33:25.995Z,10.18
2022-10-19T08:35:54.100Z,10.12
2022-10-19T08:38:20.904Z,10.03
2022-10-19T08:40:47.484Z,10.09
2022-10-19T08:43:34.457Z,10.09
2022-10-19T08:46:24.385Z,10.26
2022-10-19T08:48:52.142Z,10.25
2022-10-19T08:51:18.775Z,10.45
2022-10-19T08:54:00.601Z,10.49
2022-10-19T08:56:51.466Z,10.46
2022-10-19T08:59:27.136Z,10.41
2022-10-19T09:02:02.664Z,10.65
2022-10-19T09:04:38.617Z,10.48
2022-10-19T09:07:11.034Z,10.40
2022-10-19T09:12:32.409Z,10.59
2022-10-19T09:15:06.994Z,10.52
2022-10-19T09:17:33.743Z,10.60
2022-10-19T09:20:21.477Z,10.38
2022-10-19T09:23:02.638Z,10.60
2022-10-19T09:25:31.150Z,10.48
2022-10-19T09:28:19.509Z,10.37
2022-10-19T09:30:48.308Z,10.39
2022-10-19T09:33:25.676Z,10.37
2022-10-19T09:35:56.579Z,10.50
2022-10-19T09:38:25.597Z,10.40
2022-10-19T09:40:52.127Z,10.40
2022-10-19T09:43:21.809Z,10.69
2022-10-19T09:46:00.894Z,10.78
2022-10-19T09:48:42.464Z,10.56
2022-10-19T09:51:14.257Z,10.51
2022-10-19T09:54:01.108Z,10.47
2022-10-19T09:56:28.143Z,10.52
2022-10-19T09:58:57.586Z,10.66
2022-10-19T10:01:41.704Z,10.60
2022-10-19T10:04:18.575Z,10.58
2022-10-19T10:06:48.275Z,10.54
2022-10-19T10:09:22.239Z,10.84
2022-10-19T10:11:50.979Z,10.61
2022-10-19T10:14:26.880Z,10.64
2022-10-19T10:17:01.650Z,10.81
2022-10-19T10:19:30.802Z,10.68
2022-10-19T10:22:00.033Z,10.82
2022-10-19T10:24:31.956Z,10.82
2022-10-19T10:27:00.886Z,11.03
2022-10-19T10:29:29.059Z,10.90
2022-10-19T10:32:00.451Z,10.99
2022-10-19T10:34:45.946Z,10.85
2022-10-19T10:37:44.815Z,10.75
2022-10-19T10:40:22.684Z,10.90
2022-10-19T10:42:52.731Z,10.96
2022-10-19T10:45:53.134Z,10.98
2022-10-19T10:48:40.066Z,10.84
2022-10-19T10:51:37.779Z,11.07
2022-10-19T10:54:31.336Z,11.23
2022-10-19T10:57:16.815Z,11.00
2022-10-19T10:59:57.852Z,10.98
2022-10-19T11:02:28.340Z,10.94
2022-10-19T11:05:01.839Z,10.93
2022-10-19T11:07:32.267Z,11.08
2022-10-19T11:10:06.837Z,10.82
2022-10-19T11:12:41.806Z,10.93
2022-10-19T11:18:14.232Z,10.98
2022-10-19T11:20:47.758Z,11.02
2022-10-19T11:23:24.325Z,11.08
2022-10-19T11:26:34.516Z,11.04
2022-10-19T11:29:12.813Z,11.18
2022-10-19T11:31:47.415Z,11.00
2022-10-19T11:34:32.781Z,11.06
2022-10-19T11:37:16.844Z,11.03
2022-10-19T11:39:51.426Z,11.09
2022-10-19T11:42:21.000Z,11.14
2022-10-19T11:44:57.124Z,11.09
2022-10-19T11:47:29.941Z,10.92
2022-10-19T11:52:50.712Z,11.23
2022-10-19T11:56:07.971Z,11.17
2022-10-19T11:58:49.575Z,11.09
2022-10-19T12:01:37.569Z,11.12
2022-10-19T12:04:20.721Z,11.27
2022-10-19T12:06:56.141Z,11.16
2022-10-19T12:09:36.691Z,11.34
2022-10-19T12:12:08.903Z,11.24
2022-10-19T12:14:40.486Z,11.34
2022-10-19T12:17:18.127Z,11.41
2022-10-19T12:19:49.345Z,11.43
2022-10-19T12:22:22.451Z,11.34
2022-10-19T12:24:50.875Z,11.54
2022-10-19T12:27:29.735Z,11.60
2022-10-19T12:30:02.006Z,11.48
2022-10-19T12:32:33.701Z,11.57
2022-10-19T12:35:21.851Z,11.45
2022-10-19T12:37:57.287Z,11.60
2022-10-19T12:40:27.919Z,11.61
2022-10-19T12:43:08.924Z,11.51
2022-10-19T12:45:48.554Z,11.55
2022-10-19T12:48:20.477Z,11.66
2022-10-19T12:50:49.889Z,11.65
2022-10-19T12:53:39.451Z,11.57
2022-10-19T12:56:11.666Z,11.55
2022-10-19T12:58:38.119Z,11.55
2022-10-19T13:01:07.242Z,11.59
2022-10-19T13:03:42.561Z,11.56
2022-10-19T13:06:18.784Z,11.57
2022-10-19T13:09:07.016Z,11.98
2022-10-19T13:14:27.852Z,11.84
2022-10-19T13:17:00.264Z,11.92
2022-10-19T13:19:27.306Z,11.91
2022-10-19T13:21:55.122Z,11.82
2022-10-19T13:24:24.627Z,11.72
2022-10-19T13:27:03.522Z,12.00
2022-10-19T13:29:44.472Z,11.88
2022-10-19T13:32:29.612Z,11.96
2022-10-19T13:35:23.794Z,11.97
2022-10-19T13:38:09.146Z,11.95
2022-10-19T13:40:56.064Z,11.87
2022-10-19T13:43:26.076Z,11.94
2022-10-19T13:46:07.794Z,11.93
2022-10-19T13:49:09.054Z,12.04
2022-10-19T13:51:35.551Z,11.99
2022-10-19T13:54:23.782Z,12.12
2022-10-19T13:57:27.492Z,11.99
2022-10-19T13:59:59.707Z,12.08
2022-10-19T14:02:47.389Z,12.33
2022-10-19T14:05:45.443Z,12.56
2022-10-19T14:08:33.959Z,12.32
2022-10-19T14:11:11.779Z,12.43
2022-10-19T14:13:38.444Z,12.50
2022-10-19T14:16:05.529Z,12.56
2022-10-19T14:18:34.646Z,12.57
2022-10-19T14:21:07.520Z,12.58
2022-10-19T14:23:37.011Z,12.60
2022-10-19T14:26:21.883Z,12.66
2022-10-19T14:28:54.193Z,12.53
2022-10-19T14:31:35.062Z,12.63
2022-10-19T14:34:04.196Z,12.62
2022-10-19T14:36:38.191Z,12.70
2022-10-19T14:39:05.908Z,12.76
2022-10-19T14:41:36.090Z,12.76
2022-10-19T14:44:28.445Z,12.91
2022-10-19T14:46:55.735Z,12.95
2022-10-19T14:49:22.303Z,12.84
2022-10-19T14:51:54.076Z,12.89
2022-10-19T14:54:29.142Z,12.86
2022-10-19T14:57:01.139Z,12.80
2022-10-19T14:59:33.675Z,12.80
2022-10-19T15:02:03.830Z,12.76
2022-10-19T15:04:36.906Z,12.76
2022-10-19T15:07:13.743Z,12.75
2022-10-19T15:09:49.682Z,12.72
2022-10-19T15:12:20.717Z,12.82
2022-10-19T15:14:48.038Z,13.00
2022-10-19T15:17:22.219Z,12.97
2022-10-19T15:19:48.890Z,13.03
2022-10-19T15:22:19.843Z,13.03
2022-10-19T15:25:07.446Z,13.12
2022-10-19T15:27:35.298Z,13.01
2022-10-19T15:30:21.152Z,12.99
2022-10-19T15:32:50.649Z,12.98
2022-10-19T15:35:33.180Z,12.88
2022-10-19T15:38:10.111Z,12.91
2022-10-19T15:40:39.926Z,12.83
2022-10-19T15:43:34.481Z,12.80
2022-10-19T15:46:21.408Z,12.78
2022-10-19T15:48:55.184Z,12.76
2022-10-19T15:51:25.000Z,12.68
2022-10-19T15:53:58.959Z,12.71
2022-10-19T15:56:28.402Z,12.69
2022-10-19T15:58:57.290Z,12.63
2022-10-19T16:01:26.670Z,12.59
2022-10-19T16:03:53.672Z,12.58
2022-10-19T16:06:23.149Z,12.60
2022-10-19T16:08:51.281Z,12.59
2022-10-19T16:11:20.173Z,12.64
2022-10-19T16:13:47.402Z,12.56
2022-10-19T16:16:28.484Z,12.54
2022-10-19T16:18:56.281Z,12.46
2022-10-19T16:21:26.872Z,12.48
2022-10-19T16:23:53.762Z,12.43
2022-10-19T16:26:21.197Z,12.45
2022-10-19T16:28:48.945Z,12.38
2022-10-19T16:31:16.186Z,12.40
2022-10-19T16:33:42.802Z,12.36
2022-10-19T16:36:09.796Z,12.39
2022-10-19T16:38:36.999Z,12.32
2022-10-19T16:41:06.174Z,12.34
2022-10-19T16:43:33.627Z,12.25
2022-10-19T16:46:01.199Z,12.20
2022-10-19T16:48:28.201Z,12.19
2022-10-19T16:51:07.058Z,12.13
2022-10-19T16:53:34.662Z,12.11
2022-10-19T16:56:10.661Z,12.03
2022-10-19T16:58:37.777Z,11.99
2022-10-19T17:01:12.491Z,11.96
2022-10-19T17:03:39.205Z,11.89
2022-10-19T17:06:08.150Z,11.92
2022-10-19T17:08:53.045Z,11.85
2022-10-19T17:11:34.107Z,11.83
2022-10-19T17:14:04.529Z,11.82
2022-10-19T17:16:32.852Z,11.68
2022-10-19T17:19:01.326Z,11.68
2022-10-19T17:21:30.372Z,11.57
2022-10-19T17:24:00.027Z,11.57
2022-10-19T17:26:31.618Z,11.49
2022-10-19T17:28:59.642Z,11.48
2022-10-19T17:31:27.183Z,11.36
2022-10-19T17:33:54.610Z,11.38
2022-10-19T17:36:27.541Z,11.30
2022-10-19T17:38:58.766Z,11.28
2022-10-19T17:41:26.413Z,11.20
2022-10-19T17:43:53.211Z,11.12
2022-10-19T17:46:26.000Z,11.11
2022-10-19T17:48:52.851Z,11.04
2022-10-19T17:51:23.689Z,11.04
2022-10-19T17:53:50.956Z,10.97
2022-10-19T17:56:20.031Z,10.96
2022-10-19T17:58:47.663Z,10.95
2022-10-19T18:01:16.156Z,10.93
2022-10-19T18:03:42.879Z,11.02
2022-10-19T18:06:14.915Z,11.06
2022-10-19T18:08:44.775Z,10.95
2022-10-19T18:11:14.349Z,10.94
2022-10-19T18:13:42.101Z,10.96
2022-10-19T18:16:12.575Z,10.98
2022-10-19T18:18:41.082Z,10.97
2022-10-19T18:21:11.477Z,10.95
2022-10-19T18:23:38.600Z,10.93
2022-10-19T18:26:08.112Z,10.93
2022-10-19T18:28:35.191Z,10.91
2022-10-19T18:31:32.172Z,10.94
2022-10-19T18:34:01.555Z,10.85
2022-10-19T18:36:28.815Z,10.93
2022-10-19T18:38:59.419Z,10.89
2022-10-19T18:41:26.714Z,10.83
2022-10-19T18:43:57.129Z,10.81
2022-10-19T18:46:26.030Z,10.83
2022-10-19T18:48:53.699Z,10.82
2022-10-19T18:51:22.610Z,10.91
2022-10-19T18:53:50.146Z,10.86
2022-10-19T18:56:19.390Z,10.99
2022-10-19T18:58:46.718Z,11.02
2022-10-19T19:01:18.852Z,10.90
2022-10-19T19:03:47.719Z,10.92
2022-10-19T19:06:17.335Z,10.93
2022-10-19T19:11:29.579Z,10.92
2022-10-19T19:13:59.813Z,11.01
2022-10-19T19:16:27.808Z,10.94
2022-10-19T19:18:55.144Z,10.95
2022-10-19T19:21:27.319Z,11.01
2022-10-19T19:23:56.147Z,11.03
2022-10-19T19:26:26.316Z,11.08
2022-10-19T19:28:53.152Z,11.00
2022-10-19T19:31:20.473Z,10.98
2022-10-19T19:33:47.758Z,10.99
2022-10-19T19:36:16.378Z,10.92
2022-10-19T19:38:43.797Z,10.92
2022-10-19T19:41:15.293Z,10.90
2022-10-19T19:43:42.664Z,11.02
2022-10-19T19:46:16.758Z,10.88
2022-10-19T19:48:46.376Z,10.85
2022-10-19T19:51:18.669Z,10.81
2022-10-19T19:53:46.377Z,10.86
2022-10-19T19:56:14.616Z,10.85
2022-10-19T19:58:42.410Z,10.83
2022-10-19T20:01:20.099Z,10.84
2022-10-19T20:03:47.858Z,10.73
2022-10-19T20:06:18.681Z,10.80
2022-10-19T20:08:47.440Z,10.75
2022-10-19T20:11:16.139Z,10.75
2022-10-19T20:13:44.155Z,10.73
2022-10-19T20:16:13.834Z,10.70
2022-10-19T20:18:49.666Z,10.75
2022-10-19T20:21:18.884Z,10.70
2022-10-19T20:23:46.706Z,10.70
2022-10-19T20:26:21.232Z,10.70
2022-10-19T20:28:48.010Z,10.74
2022-10-19T20:31:15.125Z,10.64
2022-10-19T20:33:43.561Z,10.71
2022-10-19T20:36:14.515Z,10.68
2022-10-19T20:38:46.209Z,10.65
2022-10-19T20:41:12.753Z,10.58
2022-10-19T20:43:39.353Z,10.63
2022-10-19T20:46:08.475Z,10.68
2022-10-19T20:48:35.180Z,10.61
2022-10-19T20:51:19.144Z,10.62
2022-10-19T20:53:49.799Z,10.64
2022-10-19T20:56:21.479Z,10.62
2022-10-19T20:58:48.052Z,10.64
2022-10-19T21:01:17.438Z,10.62
2022-10-19T21:03:48.740Z,10.54
2022-10-19T21:06:15.738Z,10.53
2022-10-19T21:08:42.759Z,10.51
2022-10-19T21:11:14.609Z,10.54
2022-10-19T21:13:41.814Z,10.52
2022-10-19T21:16:17.253Z,10.50
2022-10-19T21:18:47.517Z,10.52
2022-10-19T21:21:18.807Z,10.54
2022-10-19T21:23:47.113Z,10.49
2022-10-19T21:26:13.963Z,10.46
2022-10-19T21:28:45.424Z,10.47
2022-10-19T21:31:11.983Z,10.47
2022-10-19T21:33:38.512Z,10.56
2022-10-19T21:36:07.057Z,10.43
2022-10-19T21:38:34.385Z,10.40
2022-10-19T21:41:03.114Z,10.41
2022-10-19T21:43:30.309Z,10.33
2022-10-19T21:45:56.951Z,10.36
2022-10-19T21:48:23.827Z,10.32
2022-10-19T21:50:50.677Z,10.34
2022-10-19T21:53:19.537Z,10.25
2022-10-19T21:55:46.779Z,10.29
2022-10-19T21:58:13.454Z,10.24
2022-10-19T22:00:40.439Z,10.25
2022-10-19T22:03:06.998Z,10.31
2022-10-19T22:05:33.665Z,10.24
2022-10-19T22:08:00.170Z,10.28
2022-10-19T22:10:27.046Z,10.22
2022-10-19T22:12:53.686Z,10.23
2022-10-19T22:15:20.211Z,10.21
2022-10-19T22:17:46.767Z,10.17
2022-10-19T22:20:13.484Z,10.15
2022-10-19T22:22:40.016Z,10.19
2022-10-19T22:25:06.830Z,10.16
2022-10-19T22:27:33.809Z,10.14
2022-10-19T22:30:00.325Z,10.17
2022-10-19T22:32:26.844Z,10.17
2022-10-19T22:34:53.427Z,10.13
2022-10-19T22:37:20.132Z,10.14
2022-10-19T22:39:46.678Z,10.16
2022-10-19T22:42:13.266Z,10.18
2022-10-19T22:44:39.838Z,10.28
2022-10-19T22:47:06.338Z,10.18
2022-10-19T22:49:33.261Z,10.15
2022-10-19T22:51:59.955Z,10.13
2022-10-19T22:54:26.529Z,10.14
2022-10-19T22:56:53.577Z,10.09
2022-10-19T22:59:20.098Z,10.06
2022-10-19T23:01:46.805Z,10.13
2022-10-19T23:04:13.424Z,10.07
2022-10-19T23:06:40.807Z,10.09
2022-10-19T23:09:07.521Z,10.10
2022-10-19T23:11:34.224Z,10.03
2022-10-19T23:14:00.753Z,10.03
2022-10-19T23:18:54.745Z,9.98
2022-10-19T23:21:21.311Z,10.02
2022-10-19T23:23:47.877Z,10.03
2022-10-19T23:26:17.152Z,10.02
2022-10-19T23:28:45.442Z,9.98
2022-10-19T23:31:14.853Z,9.99
2022-10-19T23:33:41.844Z,9.94
2022-10-19T23:36:20.410Z,9.97
2022-10-19T23:38:48.759Z,9.96
2022-10-19T23:41:16.279Z,9.93
2022-10-19T23:43:42.839Z,9.87
2022-10-19T23:46:09.799Z,9.93
2022-10-19T23:48:36.797Z,9.86
2022-10-19T23:51:06.816Z,9.84
2022-10-19T23:53:38.417Z,9.84
2022-10-19T23:56:16.478Z,9.88
2022-10-19T23:58:43.903Z,9.83
